• Join FlightAware (Why Join?)
  • Login
  • US Flag 
12:59AM EDT


 

Airport Tracker/Info


-or-


 

Live Flight TrackerFlight Track Log ✈ AWE3417 ✈ 24-Apr-2013 ✈ KDCA - KCMH

Flight Track Log - Related Links

Times and Time Zones

All times are in EDT time to prevent confusion due to time zone crossing. See the AWE3417 flight status page for this flight to view local times or setup timezone preferences in your user account.

Time Position Orientation Groundspeed Altitude Reporting Facility
EDT Latitude Longitude Course Direction KTS MPH feet Rate Location/Type
08:33PM 38.8167 -77.0333 274° West 137 158 1,900  Level Potomac TRACON
08:34PM 38.7667 -77.0500 195° South 202 232 3,300 1,620 Climbing Potomac TRACON
08:35PM 38.7667 -77.1167 270° West 238 274 5,200 2,400 Climbing Potomac TRACON
08:36PM 38.7500 -77.2000 256° West 231 266 8,100 2,760 Climbing Potomac TRACON
08:37PM 38.9333 -77.7509 270° West  Level FlightAware Approximate
08:37PM 38.7833 -77.3000 293° West 267 307 10,800  Level Potomac TRACON
08:38PM 38.9389 -77.8760 274° West  Level FlightAware Approximate
08:38PM 38.8325 -77.4464 293° West 318 366 13,600  Level Washington Center
08:39PM 38.8517 -77.5481 284° West 323 372 16,400 2,580 Climbing Washington Center
08:40PM 38.8725 -77.6714 282° West 323 372 18,800 2,280 Climbing Washington Center
08:41PM 38.8894 -77.7786 282° West 328 377 21,000 1,800 Climbing Washington Center
08:42PM 38.9078 -77.9019 281° West 339 390 22,500 1,620 Climbing Washington Center
08:43PM 38.9306 -78.0253 283° West 350 403 24,300 1,740 Climbing Washington Center
08:44PM 38.9486 -78.1514 280° West 355 409 26,000 1,500 Climbing Washington Center
08:45PM 38.9625 -78.2828 278° West 361 415 27,400 960 Climbing Washington Center
08:46PM 38.9678 -78.4136 273° West 366 421 28,000 300 Climbing Washington Center
08:47PM 38.9711 -78.5447 272° West 371 427 28,000  Level Washington Center
08:48PM 38.9739 -78.6756 272° West 371 427 28,000  Level Washington Center
08:49PM 38.9789 -78.8039 273° West 365 420 28,000  Level Washington Center
08:50PM 38.9817 -78.9350 272° West 365 420 28,000  Level Washington Center
08:51PM 38.9903 -79.0661 275° West 365 420 28,000  Level Washington Center
08:52PM 38.9992 -79.1947 275° West 365 420 28,000  Level Washington Center
08:53PM 39.0119 -79.3236 277° West 370 426 28,000  Level Washington Center
08:54PM 39.0203 -79.4525 275° West 370 426 28,000  Level Washington Center
08:55PM 39.0308 -79.5758 276° West 370 426 28,000  Level Washington Center
08:56PM 39.0411 -79.7075 276° West 375 432 28,000  Level Washington Center
08:57PM 39.0514 -79.8311 276° West 361 415 28,000  Level Washington Center
08:58PM 39.0592 -79.9650 274° West 366 421 28,000  Level Washington Center
08:59PM 39.0686 -80.0994 275° West 372 428 28,000  Level Washington Center
08:59PM 39.0683 -80.1517 270° West 377 434 28,000  Level Indianapolis Center
09:00PM 39.0764 -80.2858 274° West 377 434 28,000  Level Indianapolis Center
09:02PM 39.0869 -80.4181 276° West 373 429 28,000  Level Indianapolis Center
09:03PM 39.0969 -80.5772 275° West 374 430 28,000  Level Indianapolis Center
09:04PM 39.1197 -80.7086 283° West 380 437 28,000  Level Indianapolis Center
09:05PM 39.1583 -80.8383 291° West 389 448 28,000 -120 Level Indianapolis Center
09:06PM 39.1958 -80.9667 291° West 385 443 27,800 -600 Descending Indianapolis Center
09:07PM 39.2333 -81.0925 291° West 378 435 26,800 -1,020 Descending Indianapolis Center
09:08PM 39.2692 -81.2164 291° West 371 427 25,800 -1,020 Descending Indianapolis Center
09:09PM 39.3039 -81.3381 290° West 362 417 24,800 -1,020 Descending Indianapolis Center
09:10PM 39.3386 -81.4567 291° West 356 410 23,800 -1,080 Descending Indianapolis Center
09:11PM 39.3722 -81.5731 291° West 350 403 22,700 -1,320 Descending Indianapolis Center
09:12PM 39.4119 -81.7136 290° West 348 400 21,200 -1,680 Descending Indianapolis Center
09:13PM 39.4450 -81.8317 290° West 347 399 19,300 -1,740 Descending Indianapolis Center
09:14PM 39.4778 -81.9461 290° West 342 394 17,700 -1,800 Descending Indianapolis Center
09:15PM 39.5103 -82.0600 290° West 338 389 15,700 -1,980 Descending Indianapolis Center
09:15PM 39.5311 -82.1381 289° West 331 381 14,500 -1,620 Descending Indianapolis Center
09:16PM 39.5386 -82.1636 291° West 328 377 14,100 -1,680 Descending Indianapolis Center
09:16PM 39.5644 -82.2442 293° West 336 387 12,800 -1,800 Descending Indianapolis Center
09:17PM 39.5706 -82.2758 284° West 329 379 12,300 -1,740 Descending Indianapolis Center
09:17PM 39.5947 -82.3608 290° West 375 432 11,100 -1,380 Descending Indianapolis Center
09:18PM 39.6200 -82.3981 311° West 328 377 10,900 -1,260 Descending Indianapolis Center
09:19PM 39.6625 -82.4492 317° Northwest 317 365 9,700 -1,800 Descending Indianapolis Center
09:19PM 39.6825 -82.4711 320° Northwest 300 345 9,100 -1,980 Descending Indianapolis Center
09:20PM 39.7347 -82.5214 323° Northwest 236 272 7,100 -2,280 Descending Indianapolis Center
09:21PM 39.7706 -82.5558 324° Northwest 212 244 5,000 -1,860 Descending Indianapolis Center
09:22PM 39.8139 -82.5983 323° Northwest 222 255 4,000 -900 Descending Indianapolis Center
09:22PM 39.8289 -82.6114 326° Northwest 209 241 3,900 -300 Descending Indianapolis Center
09:24PM 39.9044 -82.6844 323° Northwest 224 258 3,400 -540 Descending Indianapolis Center
09:24PM 39.9206 -82.6983 327° Northwest 203 234 2,800 -600 Descending Indianapolis Center
09:25PM 39.9636 -82.7397 324° Northwest 209 241 2,700 -120 Descending Indianapolis Center